sensor_id;sensor_type;location;lat;lon;timestamp;pressure;altitude;pressure_sealevel;temperature;humidity
14885;BME280;7534;50.762;7.000;2022-11-09T00:00:48;150292.28;;;15.78;78.36
14885;BME280;7534;50.762;7.000;2022-11-09T00:03:14;150302.75;;;15.82;78.04
14885;BME280;7534;50.762;7.000;2022-11-09T00:05:40;150317.25;;;15.87;77.82
14885;BME280;7534;50.762;7.000;2022-11-09T00:08:07;150280.41;;;15.73;78.56
14885;BME280;7534;50.762;7.000;2022-11-09T00:10:33;150271.25;;;15.70;79.03
14885;BME280;7534;50.762;7.000;2022-11-09T00:13:00;150254.16;;;15.63;79.46
14885;BME280;7534;50.762;7.000;2022-11-09T00:15:26;150272.56;;;15.70;79.32
14885;BME280;7534;50.762;7.000;2022-11-09T00:17:52;150239.66;;;15.57;79.39
14885;BME280;7534;50.762;7.000;2022-11-09T00:20:18;150238.34;;;15.57;79.76
14885;BME280;7534;50.762;7.000;2022-11-09T00:22:48;150231.81;;;15.54;79.93
14885;BME280;7534;50.762;7.000;2022-11-09T00:25:14;150239.66;;;15.57;80.22
14885;BME280;7534;50.762;7.000;2022-11-09T00:27:40;150258.13;;;15.64;79.56
14885;BME280;7534;50.762;7.000;2022-11-09T00:30:06;150275.19;;;15.71;79.00
14885;BME280;7534;50.762;7.000;2022-11-09T00:32:32;150289.63;;;15.77;78.42
14885;BME280;7534;50.762;7.000;2022-11-09T00:34:59;150290.94;;;15.77;78.27
14885;BME280;7534;50.762;7.000;2022-11-09T00:37:24;150292.28;;;15.78;78.44
14885;BME280;7534;50.762;7.000;2022-11-09T00:39:50;150294.91;;;15.79;77.76
14885;BME280;7534;50.762;7.000;2022-11-09T00:42:16;150297.53;;;15.80;77.82
14885;BME280;7534;50.762;7.000;2022-11-09T00:44:41;150267.28;;;15.68;78.47
14885;BME280;7534;50.762;7.000;2022-11-09T00:47:07;150252.84;;;15.62;78.59
14885;BME280;7534;50.762;7.000;2022-11-09T00:49:33;150246.25;;;15.60;78.69
14885;BME280;7534;50.762;7.000;2022-11-09T00:51:58;150231.81;;;15.54;78.89
14885;BME280;7534;50.762;7.000;2022-11-09T00:54:25;150210.75;;;15.46;79.24
14885;BME280;7534;50.762;7.000;2022-11-09T00:56:51;150214.69;;;15.48;79.22
14885;BME280;7534;50.762;7.000;2022-11-09T00:59:16;150194.97;;;15.40;79.55
14885;BME280;7534;50.762;7.000;2022-11-09T01:01:42;150201.50;;;15.43;79.00
14885;BME280;7534;50.762;7.000;2022-11-09T01:04:07;150179.16;;;15.34;79.48
14885;BME280;7534;50.762;7.000;2022-11-09T01:06:33;150200.19;;;15.42;79.49
14885;BME280;7534;50.762;7.000;2022-11-09T01:09:00;150216.00;;;15.48;78.84
14885;BME280;7534;50.762;7.000;2022-11-09T01:11:26;150194.97;;;15.40;78.99
14885;BME280;7534;50.762;7.000;2022-11-09T01:13:52;150159.47;;;15.26;80.13
14885;BME280;7534;50.762;7.000;2022-11-09T01:16:21;150143.72;;;15.20;80.66
14885;BME280;7534;50.762;7.000;2022-11-09T01:18:47;150151.63;;;15.23;80.89
14885;BME280;7534;50.762;7.000;2022-11-09T01:21:14;150177.84;;;15.34;80.53
14885;BME280;7534;50.762;7.000;2022-11-09T01:23:41;150177.84;;;15.34;80.32
14885;BME280;7534;50.762;7.000;2022-11-09T01:26:12;150204.16;;;15.44;79.92
14885;BME280;7534;50.762;7.000;2022-11-09T01:28:39;150196.25;;;15.41;80.21
14885;BME280;7534;50.762;7.000;2022-11-09T01:31:17;150189.72;;;15.38;80.66
14885;BME280;7534;50.762;7.000;2022-11-09T01:33:43;150189.72;;;15.38;80.71
14885;BME280;7534;50.762;7.000;2022-11-09T01:36:17;150179.16;;;15.34;80.78
14885;BME280;7534;50.762;7.000;2022-11-09T01:38:43;150167.38;;;15.30;80.96
14885;BME280;7534;50.762;7.000;2022-11-09T01:41:33;150164.72;;;15.28;81.06
14885;BME280;7534;50.762;7.000;2022-11-09T01:44:14;150176.53;;;15.33;81.08
14885;BME280;7534;50.762;7.000;2022-11-09T01:52:25;150163.41;;;15.28;81.40
14885;BME280;7534;50.762;7.000;2022-11-09T01:55:05;150164.72;;;15.28;81.56
14885;BME280;7534;50.762;7.000;2022-11-09T01:57:38;150146.34;;;15.21;81.91
14885;BME280;7534;50.762;7.000;2022-11-09T02:00:11;150147.66;;;15.22;82.04
14885;BME280;7534;50.762;7.000;2022-11-09T02:02:45;150142.41;;;15.20;82.02
14885;BME280;7534;50.762;7.000;2022-11-09T02:05:16;150127.97;;;15.14;82.24
14885;BME280;7534;50.762;7.000;2022-11-09T02:07:43;150133.19;;;15.16;82.38
14885;BME280;7534;50.762;7.000;2022-11-09T02:10:21;150154.19;;;15.24;81.89
14885;BME280;7534;50.762;7.000;2022-11-09T02:12:50;150152.94;;;15.24;81.81
14885;BME280;7534;50.762;7.000;2022-11-09T02:15:18;150146.34;;;15.21;81.65
14885;BME280;7534;50.762;7.000;2022-11-09T02:17:44;150150.28;;;15.23;81.77
14885;BME280;7534;50.762;7.000;2022-11-09T02:20:14;150135.81;;;15.17;81.98
14885;BME280;7534;50.762;7.000;2022-11-09T02:22:41;150125.31;;;15.13;82.46
14885;BME280;7534;50.762;7.000;2022-11-09T02:25:13;150135.81;;;15.17;82.17
14885;BME280;7534;50.762;7.000;2022-11-09T02:27:42;150129.28;;;15.15;82.31
14885;BME280;7534;50.762;7.000;2022-11-09T02:30:09;150116.09;;;15.10;82.52
14885;BME280;7534;50.762;7.000;2022-11-09T02:32:36;150101.66;;;15.04;82.78
14885;BME280;7534;50.762;7.000;2022-11-09T02:35:03;150106.94;;;15.06;82.65
14885;BME280;7534;50.762;7.000;2022-11-09T02:37:48;150102.97;;;15.05;82.71
14885;BME280;7534;50.762;7.000;2022-11-09T02:40:30;150084.59;;;14.98;83.17
14885;BME280;7534;50.762;7.000;2022-11-09T02:43:02;150084.59;;;14.98;83.11
14885;BME280;7534;50.762;7.000;2022-11-09T02:45:28;150085.91;;;14.98;83.10
14885;BME280;7534;50.762;7.000;2022-11-09T02:47:53;150080.66;;;14.96;83.24
14885;BME280;7534;50.762;7.000;2022-11-09T02:50:19;150075.38;;;14.94;83.53
14885;BME280;7534;50.762;7.000;2022-11-09T02:52:45;150058.31;;;14.87;83.98
14885;BME280;7534;50.762;7.000;2022-11-09T02:55:11;150063.59;;;14.89;83.97
14885;BME280;7534;50.762;7.000;2022-11-09T02:57:36;150070.13;;;14.92;83.90
14885;BME280;7534;50.762;7.000;2022-11-09T03:00:03;150042.56;;;14.81;84.24
14885;BME280;7534;50.762;7.000;2022-11-09T03:02:29;150032.03;;;14.77;84.82
14885;BME280;7534;50.762;7.000;2022-11-09T03:04:55;150043.88;;;14.82;84.77
14885;BME280;7534;50.762;7.000;2022-11-09T03:07:25;150050.41;;;14.84;84.76
14885;BME280;7534;50.762;7.000;2022-11-09T03:09:51;150062.28;;;14.89;84.60
14885;BME280;7534;50.762;7.000;2022-11-09T03:12:28;150059.63;;;14.88;84.43
14885;BME280;7534;50.762;7.000;2022-11-09T03:15:00;150070.13;;;14.92;84.21
14885;BME280;7534;50.762;7.000;2022-11-09T03:17:27;150070.13;;;14.92;84.32
14885;BME280;7534;50.762;7.000;2022-11-09T03:19:53;150064.91;;;14.90;84.21
14885;BME280;7534;50.762;7.000;2022-11-09T03:22:20;150051.72;;;14.85;84.14
14885;BME280;7534;50.762;7.000;2022-11-09T03:24:46;150064.91;;;14.90;84.22
14885;BME280;7534;50.762;7.000;2022-11-09T03:27:12;150064.91;;;14.90;83.83
14885;BME280;7534;50.762;7.000;2022-11-09T03:29:38;150053.06;;;14.85;83.95
14885;BME280;7534;50.762;7.000;2022-11-09T03:32:04;150042.56;;;14.81;83.96
14885;BME280;7534;50.762;7.000;2022-11-09T03:34:30;150043.88;;;14.82;83.82
14885;BME280;7534;50.762;7.000;2022-11-09T03:36:55;150047.84;;;14.83;83.89
14885;BME280;7534;50.762;7.000;2022-11-09T03:39:21;150037.31;;;14.79;83.72
14885;BME280;7534;50.762;7.000;2022-11-09T03:41:47;150022.88;;;14.74;84.28
14885;BME280;7534;50.762;7.000;2022-11-09T03:44:12;150037.31;;;14.79;83.67
14885;BME280;7534;50.762;7.000;2022-11-09T03:46:38;150032.03;;;14.77;83.67
14885;BME280;7534;50.762;7.000;2022-11-09T03:49:04;150032.03;;;14.77;83.72
14885;BME280;7534;50.762;7.000;2022-11-09T03:51:29;150053.06;;;14.85;83.43
14885;BME280;7534;50.762;7.000;2022-11-09T03:53:55;150037.31;;;14.79;83.52
14885;BME280;7534;50.762;7.000;2022-11-09T03:56:21;150030.72;;;14.77;83.74
14885;BME280;7534;50.762;7.000;2022-11-09T03:58:47;150017.59;;;14.72;83.83
14885;BME280;7534;50.762;7.000;2022-11-09T04:01:13;149999.22;;;14.65;83.97
14885;BME280;7534;50.762;7.000;2022-11-09T04:03:39;150020.22;;;14.73;84.11
14885;BME280;7534;50.762;7.000;2022-11-09T04:06:05;150025.50;;;14.75;83.86
14885;BME280;7534;50.762;7.000;2022-11-09T04:08:30;150011.03;;;14.69;84.11
14885;BME280;7534;50.762;7.000;2022-11-09T04:10:56;150014.97;;;14.71;83.77
14885;BME280;7534;50.762;7.000;2022-11-09T04:13:22;150024.19;;;14.74;83.68
14885;BME280;7534;50.762;7.000;2022-11-09T04:15:48;150032.03;;;14.77;83.69
14885;BME280;7534;50.762;7.000;2022-11-09T04:18:15;150049.09;;;14.84;83.13
14885;BME280;7534;50.762;7.000;2022-11-09T04:20:42;150067.53;;;14.91;82.89
14885;BME280;7534;50.762;7.000;2022-11-09T04:23:10;150079.34;;;14.96;82.38
14885;BME280;7534;50.762;7.000;2022-11-09T04:25:39;150067.53;;;14.91;82.45
14885;BME280;7534;50.762;7.000;2022-11-09T04:28:08;150088.56;;;14.99;82.26
14885;BME280;7534;50.762;7.000;2022-11-09T04:30:35;150087.25;;;14.99;81.98
14885;BME280;7534;50.762;7.000;2022-11-09T04:33:02;150087.25;;;14.99;82.07
14885;BME280;7534;50.762;7.000;2022-11-09T04:35:29;150071.44;;;14.93;82.33
14885;BME280;7534;50.762;7.000;2022-11-09T04:37:59;150080.66;;;14.96;82.48
14885;BME280;7534;50.762;7.000;2022-11-09T04:40:28;150095.09;;;15.02;82.19
14885;BME280;7534;50.762;7.000;2022-11-09T04:42:54;150118.75;;;15.11;81.60
14885;BME280;7534;50.762;7.000;2022-11-09T04:45:21;150133.19;;;15.16;81.17
14885;BME280;7534;50.762;7.000;2022-11-09T04:47:47;150129.28;;;15.15;81.40
14885;BME280;7534;50.762;7.000;2022-11-09T04:50:13;150100.34;;;15.04;81.73
14885;BME280;7534;50.762;7.000;2022-11-09T04:52:39;150083.28;;;14.97;82.04
14885;BME280;7534;50.762;7.000;2022-11-09T04:55:06;150089.88;;;15.00;82.58
14885;BME280;7534;50.762;7.000;2022-11-09T04:57:32;150112.16;;;15.08;82.22
14885;BME280;7534;50.762;7.000;2022-11-09T04:59:57;150113.47;;;15.09;82.05
14885;BME280;7534;50.762;7.000;2022-11-09T05:02:23;150120.06;;;15.11;81.95
14885;BME280;7534;50.762;7.000;2022-11-09T05:04:48;150120.06;;;15.11;81.89
14885;BME280;7534;50.762;7.000;2022-11-09T05:07:14;150137.13;;;15.18;81.75
14885;BME280;7534;50.762;7.000;2022-11-09T05:09:40;150124.00;;;15.13;81.91
14885;BME280;7534;50.762;7.000;2022-11-09T05:12:05;150137.13;;;15.18;81.54
14885;BME280;7534;50.762;7.000;2022-11-09T05:14:31;150141.06;;;15.19;81.91
14885;BME280;7534;50.762;7.000;2022-11-09T05:16:57;150164.72;;;15.28;81.37
14885;BME280;7534;50.762;7.000;2022-11-09T05:19:22;150173.94;;;15.32;80.98
14885;BME280;7534;50.762;7.000;2022-11-09T05:21:48;150175.22;;;15.33;81.10
14885;BME280;7534;50.762;7.000;2022-11-09T05:24:14;150170.00;;;15.31;81.60
14885;BME280;7534;50.762;7.000;2022-11-09T05:26:41;150141.06;;;15.19;82.52
14885;BME280;7534;50.762;7.000;2022-11-09T05:29:10;150121.38;;;15.12;83.02
14885;BME280;7534;50.762;7.000;2022-11-09T05:31:37;150125.31;;;15.13;83.65
14885;BME280;7534;50.762;7.000;2022-11-09T05:34:05;150124.00;;;15.13;83.77
14885;BME280;7534;50.762;7.000;2022-11-09T05:36:32;150110.88;;;15.08;84.79
14885;BME280;7534;50.762;7.000;2022-11-09T05:38:59;150060.94;;;14.88;87.52
14885;BME280;7534;50.762;7.000;2022-11-09T05:41:25;150014.97;;;14.71;89.61
14885;BME280;7534;50.762;7.000;2022-11-09T05:43:52;149990.00;;;14.61;91.22
14885;BME280;7534;50.762;7.000;2022-11-09T05:46:18;149946.69;;;14.44;94.51
14885;BME280;7534;50.762;7.000;2022-11-09T05:48:44;149932.25;;;14.39;96.07
14885;BME280;7534;50.762;7.000;2022-11-09T05:51:12;149916.44;;;14.33;96.94
14885;BME280;7534;50.762;7.000;2022-11-09T05:53:40;149907.25;;;14.29;98.11
14885;BME280;7534;50.762;7.000;2022-11-09T05:56:11;149911.19;;;14.31;98.72
14885;BME280;7534;50.762;7.000;2022-11-09T05:58:38;149900.72;;;14.27;99.36
14885;BME280;7534;50.762;7.000;2022-11-09T06:01:15;149887.53;;;14.22;100.00
14885;BME280;7534;50.762;7.000;2022-11-09T06:03:41;149875.75;;;14.17;100.00
14885;BME280;7534;50.762;7.000;2022-11-09T06:06:11;149867.88;;;14.14;100.00
14885;BME280;7534;50.762;7.000;2022-11-09T06:08:37;149854.75;;;14.09;100.00
14885;BME280;7534;50.762;7.000;2022-11-09T06:11:06;149836.38;;;14.02;100.00
14885;BME280;7534;50.762;7.000;2022-11-09T06:13:32;149819.28;;;13.95;100.00
14885;BME280;7534;50.762;7.000;2022-11-09T06:16:00;149796.97;;;13.87;100.00
14885;BME280;7534;50.762;7.000;2022-11-09T06:18:29;149796.97;;;13.87;100.00
14885;BME280;7534;50.762;7.000;2022-11-09T06:20:59;149793.06;;;13.85;100.00
14885;BME280;7534;50.762;7.000;2022-11-09T06:23:25;149773.38;;;13.78;100.00
14885;BME280;7534;50.762;7.000;2022-11-09T06:25:58;149765.50;;;13.74;100.00
14885;BME280;7534;50.762;7.000;2022-11-09T06:28:24;149741.88;;;13.65;100.00
14885;BME280;7534;50.762;7.000;2022-11-09T06:30:50;149726.13;;;13.59;100.00
14885;BME280;7534;50.762;7.000;2022-11-09T06:33:16;149711.72;;;13.54;100.00
14885;BME280;7534;50.762;7.000;2022-11-09T06:35:42;149690.72;;;13.46;100.00
14885;BME280;7534;50.762;7.000;2022-11-09T06:38:09;149677.56;;;13.41;100.00
14885;BME280;7534;50.762;7.000;2022-11-09T06:40:36;149650.00;;;13.30;100.00
14885;BME280;7534;50.762;7.000;2022-11-09T06:43:02;149635.59;;;13.24;100.00
14885;BME280;7534;50.762;7.000;2022-11-09T06:45:29;149625.13;;;13.20;100.00
14885;BME280;7534;50.762;7.000;2022-11-09T06:47:58;149610.66;;;13.15;100.00
14885;BME280;7534;50.762;7.000;2022-11-09T06:50:26;149634.28;;;13.24;100.00
14885;BME280;7534;50.762;7.000;2022-11-09T06:53:02;149618.56;;;13.18;100.00
14885;BME280;7534;50.762;7.000;2022-11-09T06:55:30;149617.25;;;13.17;100.00
14885;BME280;7534;50.762;7.000;2022-11-09T06:57:57;149614.63;;;13.16;100.00
14885;BME280;7534;50.762;7.000;2022-11-09T07:00:25;149617.25;;;13.17;100.00
14885;BME280;7534;50.762;7.000;2022-11-09T07:02:51;149614.63;;;13.16;100.00
14885;BME280;7534;50.762;7.000;2022-11-09T07:05:16;149598.84;;;13.10;100.00
14885;BME280;7534;50.762;7.000;2022-11-09T07:07:42;149594.88;;;13.09;100.00
14885;BME280;7534;50.762;7.000;2022-11-09T07:10:09;149605.41;;;13.13;100.00
14885;BME280;7534;50.762;7.000;2022-11-09T07:12:35;149614.63;;;13.16;100.00
14885;BME280;7534;50.762;7.000;2022-11-09T07:15:02;149610.66;;;13.15;100.00
14885;BME280;7534;50.762;7.000;2022-11-09T07:17:33;149609.34;;;13.14;100.00
14885;BME280;7534;50.762;7.000;2022-11-09T07:19:59;149635.59;;;13.24;100.00
14885;BME280;7534;50.762;7.000;2022-11-09T07:22:27;149653.97;;;13.31;100.00
14885;BME280;7534;50.762;7.000;2022-11-09T07:24:53;149667.09;;;13.36;100.00
14885;BME280;7534;50.762;7.000;2022-11-09T07:27:20;149671.00;;;13.38;100.00
14885;BME280;7534;50.762;7.000;2022-11-09T07:29:46;149685.47;;;13.44;100.00
14885;BME280;7534;50.762;7.000;2022-11-09T07:32:12;149706.47;;;13.52;100.00
14885;BME280;7534;50.762;7.000;2022-11-09T07:34:37;149745.81;;;13.67;100.00
14885;BME280;7534;50.762;7.000;2022-11-09T07:37:03;149835.06;;;14.01;100.00
14885;BME280;7534;50.762;7.000;2022-11-09T07:39:29;150022.88;;;14.74;100.00
14885;BME280;7534;50.762;7.000;2022-11-09T07:41:54;150288.31;;;15.76;100.00
14885;BME280;7534;50.762;7.000;2022-11-09T07:44:20;150463.19;;;16.44;100.00
14885;BME280;7534;50.762;7.000;2022-11-09T07:46:49;150515.84;;;16.64;100.00
14885;BME280;7534;50.762;7.000;2022-11-09T07:49:16;150529.03;;;16.69;100.00
14885;BME280;7534;50.762;7.000;2022-11-09T07:51:42;150534.25;;;16.71;100.00
14885;BME280;7534;50.762;7.000;2022-11-09T07:54:09;150714.56;;;17.40;100.00
14885;BME280;7534;50.762;7.000;2022-11-09T07:56:36;150804.13;;;17.75;100.00
14885;BME280;7534;50.762;7.000;2022-11-09T07:59:03;150921.31;;;18.20;98.75
14885;BME280;7534;50.762;7.000;2022-11-09T08:01:28;151021.47;;;18.58;95.22
14885;BME280;7534;50.762;7.000;2022-11-09T08:03:58;151024.13;;;18.59;92.44
14885;BME280;7534;50.762;7.000;2022-11-09T08:06:24;151141.44;;;19.04;86.99
14885;BME280;7534;50.762;7.000;2022-11-09T08:08:54;151217.88;;;19.34;83.44
14885;BME280;7534;50.762;7.000;2022-11-09T08:11:20;151182.28;;;19.20;79.17
14885;BME280;7534;50.762;7.000;2022-11-09T08:13:46;151117.69;;;18.95;78.07
14885;BME280;7534;50.762;7.000;2022-11-09T08:16:11;151036.00;;;18.64;77.69
14885;BME280;7534;50.762;7.000;2022-11-09T08:18:37;150884.47;;;18.06;77.83
14885;BME280;7534;50.762;7.000;2022-11-09T08:21:03;150805.47;;;17.75;78.57
14885;BME280;7534;50.762;7.000;2022-11-09T08:23:30;150744.81;;;17.52;80.15
14885;BME280;7534;50.762;7.000;2022-11-09T08:25:56;150763.28;;;17.59;82.22
14885;BME280;7534;50.762;7.000;2022-11-09T08:28:22;150805.47;;;17.75;82.83
14885;BME280;7534;50.762;7.000;2022-11-09T08:30:57;150916.03;;;18.18;83.12
14885;BME280;7534;50.762;7.000;2022-11-09T08:33:25;151113.75;;;18.94;80.84
14885;BME280;7534;50.762;7.000;2022-11-09T08:35:52;151207.28;;;19.30;75.26
14885;BME280;7534;50.762;7.000;2022-11-09T08:38:17;151282.53;;;19.59;72.30
14885;BME280;7534;50.762;7.000;2022-11-09T08:40:43;151328.69;;;19.76;70.57
14885;BME280;7534;50.762;7.000;2022-11-09T08:43:10;151378.78;;;19.96;72.16
14885;BME280;7534;50.762;7.000;2022-11-09T08:45:39;151605.78;;;20.83;67.66
14885;BME280;7534;50.762;7.000;2022-11-09T08:48:06;151839.56;;;21.73;63.79
14885;BME280;7534;50.762;7.000;2022-11-09T08:50:35;151900.31;;;21.96;58.57
14885;BME280;7534;50.762;7.000;2022-11-09T08:53:02;152144.84;;;22.90;56.00
14885;BME280;7534;50.762;7.000;2022-11-09T08:55:28;152107.84;;;22.75;53.51
14885;BME280;7534;50.762;7.000;2022-11-09T08:57:57;152006.06;;;22.36;53.32
14885;BME280;7534;50.762;7.000;2022-11-09T09:00:23;151893.69;;;21.93;53.58
14885;BME280;7534;50.762;7.000;2022-11-09T09:02:48;151719.34;;;21.26;53.92
14885;BME280;7534;50.762;7.000;2022-11-09T09:05:15;151531.88;;;20.54;56.07
14885;BME280;7534;50.762;7.000;2022-11-09T09:07:42;151459.28;;;20.27;55.46
14885;BME280;7534;50.762;7.000;2022-11-09T09:10:11;151386.69;;;19.99;55.71
14885;BME280;7534;50.762;7.000;2022-11-09T09:12:37;151419.66;;;20.11;55.01
14885;BME280;7534;50.762;7.000;2022-11-09T09:15:04;151501.53;;;20.43;55.44
14885;BME280;7534;50.762;7.000;2022-11-09T09:17:30;151616.34;;;20.87;54.08
14885;BME280;7534;50.762;7.000;2022-11-09T09:19:55;151665.19;;;21.06;52.79
14885;BME280;7534;50.762;7.000;2022-11-09T09:22:21;151582.03;;;20.74;51.80
14885;BME280;7534;50.762;7.000;2022-11-09T09:24:47;151648.03;;;20.99;52.16
14885;BME280;7534;50.762;7.000;2022-11-09T09:27:12;151691.59;;;21.16;51.21
14885;BME280;7534;50.762;7.000;2022-11-09T09:29:38;151670.47;;;21.08;51.93
14885;BME280;7534;50.762;7.000;2022-11-09T09:32:04;151549.00;;;20.61;51.69
14885;BME280;7534;50.762;7.000;2022-11-09T09:34:30;151494.94;;;20.40;52.70
14885;BME280;7534;50.762;7.000;2022-11-09T09:36:55;151413.09;;;20.09;52.87
14885;BME280;7534;50.762;7.000;2022-11-09T09:39:21;151308.91;;;19.69;53.01
14885;BME280;7534;50.762;7.000;2022-11-09T09:41:57;151120.34;;;18.96;55.07
14885;BME280;7534;50.762;7.000;2022-11-09T09:47:17;150997.69;;;18.49;54.47
14885;BME280;7534;50.762;7.000;2022-11-09T09:49:52;150951.63;;;18.32;55.65
14885;BME280;7534;50.762;7.000;2022-11-09T09:52:44;150889.75;;;18.08;55.84
14885;BME280;7534;50.762;7.000;2022-11-09T09:55:36;150834.41;;;17.86;56.76
14885;BME280;7534;50.762;7.000;2022-11-09T09:58:33;150843.63;;;17.90;56.75
14885;BME280;7534;50.762;7.000;2022-11-09T10:01:11;150814.66;;;17.79;56.61
14885;BME280;7534;50.762;7.000;2022-11-09T10:03:39;150937.13;;;18.26;56.79
14885;BME280;7534;50.762;7.000;2022-11-09T10:15:28;150993.78;;;18.48;56.60
14885;BME280;7534;50.762;7.000;2022-11-09T10:18:56;150950.31;;;18.31;54.71
14885;BME280;7534;50.762;7.000;2022-11-09T10:21:41;150923.97;;;18.21;54.61
14885;BME280;7534;50.762;7.000;2022-11-09T10:27:41;150997.69;;;18.49;53.58
14885;BME280;7534;50.762;7.000;2022-11-09T10:30:15;151003.00;;;18.51;54.03
14885;BME280;7534;50.762;7.000;2022-11-09T10:32:50;151012.22;;;18.55;54.50
14885;BME280;7534;50.762;7.000;2022-11-09T10:35:25;150976.63;;;18.41;53.48
14885;BME280;7534;50.762;7.000;2022-11-09T10:37:53;150951.63;;;18.32;53.92
14885;BME280;7534;50.762;7.000;2022-11-09T10:40:35;150876.53;;;18.03;53.88
14885;BME280;7534;50.762;7.000;2022-11-09T10:43:12;150860.75;;;17.97;54.84
14885;BME280;7534;50.762;7.000;2022-11-09T10:45:43;150834.41;;;17.86;53.84
14885;BME280;7534;50.762;7.000;2022-11-09T10:48:12;150781.75;;;17.66;53.85
14885;BME280;7534;50.762;7.000;2022-11-09T10:50:46;150798.88;;;17.73;54.39
14885;BME280;7534;50.762;7.000;2022-11-09T10:53:23;150794.91;;;17.71;53.95
14885;BME280;7534;50.762;7.000;2022-11-09T11:01:34;150732.97;;;17.47;54.18
14885;BME280;7534;50.762;7.000;2022-11-09T11:04:20;150773.84;;;17.63;53.72
14885;BME280;7534;50.762;7.000;2022-11-09T11:06:46;150818.63;;;17.80;54.27
14885;BME280;7534;50.762;7.000;2022-11-09T11:09:15;150785.66;;;17.68;52.98
14885;BME280;7534;50.762;7.000;2022-11-09T11:11:44;150742.22;;;17.51;53.13
14885;BME280;7534;50.762;7.000;2022-11-09T11:14:34;150705.31;;;17.37;53.25
14885;BME280;7534;50.762;7.000;2022-11-09T11:17:25;150690.88;;;17.31;53.71
14885;BME280;7534;50.762;7.000;2022-11-09T11:19:51;150657.97;;;17.19;54.81
14885;BME280;7534;50.762;7.000;2022-11-09T11:22:22;150669.81;;;17.23;55.28
14885;BME280;7534;50.762;7.000;2022-11-09T11:24:58;150671.13;;;17.24;55.40
14885;BME280;7534;50.762;7.000;2022-11-09T11:27:34;150650.06;;;17.15;54.86
14885;BME280;7534;50.762;7.000;2022-11-09T11:30:19;150615.88;;;17.02;54.70
14885;BME280;7534;50.762;7.000;2022-11-09T11:32:54;150655.34;;;17.17;56.04
14885;BME280;7534;50.762;7.000;2022-11-09T11:35:35;150698.78;;;17.34;55.64
14885;BME280;7534;50.762;7.000;2022-11-09T11:38:28;150763.28;;;17.59;54.38
14885;BME280;7534;50.762;7.000;2022-11-09T11:41:16;150781.75;;;17.66;53.82
14885;BME280;7534;50.762;7.000;2022-11-09T11:46:46;150889.75;;;18.08;54.72
14885;BME280;7534;50.762;7.000;2022-11-09T11:49:43;150873.91;;;18.02;52.78
14885;BME280;7534;50.762;7.000;2022-11-09T11:52:42;150888.41;;;18.07;53.34
14885;BME280;7534;50.762;7.000;2022-11-09T11:58:30;150910.81;;;18.16;52.54
14885;BME280;7534;50.762;7.000;2022-11-09T12:01:42;150941.09;;;18.27;53.00
14885;BME280;7534;50.762;7.000;2022-11-09T12:10:21;151005.63;;;18.52;53.04
14885;BME280;7534;50.762;7.000;2022-11-09T12:13:45;150984.56;;;18.44;52.30
14885;BME280;7534;50.762;7.000;2022-11-09T12:22:07;150844.97;;;17.90;53.48
14885;BME280;7534;50.762;7.000;2022-11-09T12:24:55;150971.41;;;18.39;52.45
14885;BME280;7534;50.762;7.000;2022-11-09T12:28:06;150943.72;;;18.28;52.42
14885;BME280;7534;50.762;7.000;2022-11-09T12:31:22;150921.31;;;18.20;53.01
14885;BME280;7534;50.762;7.000;2022-11-09T12:33:57;150910.81;;;18.16;53.59
14885;BME280;7534;50.762;7.000;2022-11-09T12:36:38;150918.69;;;18.19;53.95
14885;BME280;7534;50.762;7.000;2022-11-09T12:39:23;150929.25;;;18.23;54.33
14885;BME280;7534;50.762;7.000;2022-11-09T12:42:03;150939.75;;;18.27;53.83
14885;BME280;7534;50.762;7.000;2022-11-09T12:44:42;150931.88;;;18.24;53.13
14885;BME280;7534;50.762;7.000;2022-11-09T12:47:16;150862.06;;;17.97;54.73
14885;BME280;7534;50.762;7.000;2022-11-09T12:49:45;150863.38;;;17.98;55.05
14885;BME280;7534;50.762;7.000;2022-11-09T12:52:17;150848.88;;;17.92;54.42
14885;BME280;7534;50.762;7.000;2022-11-09T12:54:48;150790.94;;;17.70;55.39
14885;BME280;7534;50.762;7.000;2022-11-09T12:57:26;150763.28;;;17.59;55.38
14885;BME280;7534;50.762;7.000;2022-11-09T12:59:58;150739.56;;;17.50;55.86
14885;BME280;7534;50.762;7.000;2022-11-09T13:05:05;150747.44;;;17.53;55.96
14885;BME280;7534;50.762;7.000;2022-11-09T13:07:43;150723.75;;;17.44;55.47
14885;BME280;7534;50.762;7.000;2022-11-09T13:10:34;150765.88;;;17.60;56.42
14885;BME280;7534;50.762;7.000;2022-11-09T13:13:20;150739.56;;;17.50;55.13
14885;BME280;7534;50.762;7.000;2022-11-09T13:16:32;150771.19;;;17.62;55.26
14885;BME280;7534;50.762;7.000;2022-11-09T13:18:58;150743.50;;;17.51;54.86
14885;BME280;7534;50.762;7.000;2022-11-09T13:23:52;150776.47;;;17.64;55.20
14885;BME280;7534;50.762;7.000;2022-11-09T13:32:23;150765.88;;;17.60;54.51
14885;BME280;7534;50.762;7.000;2022-11-09T13:35:01;150760.66;;;17.58;55.29
14885;BME280;7534;50.762;7.000;2022-11-09T13:37:44;150855.47;;;17.95;54.90
14885;BME280;7534;50.762;7.000;2022-11-09T13:43:15;150879.19;;;18.04;54.66
14885;BME280;7534;50.762;7.000;2022-11-09T13:45:54;150892.34;;;18.09;52.79
14885;BME280;7534;50.762;7.000;2022-11-09T13:48:46;150834.41;;;17.86;52.55
14885;BME280;7534;50.762;7.000;2022-11-09T13:51:19;150758.00;;;17.57;51.74
14885;BME280;7534;50.762;7.000;2022-11-09T13:54:26;150746.13;;;17.52;52.77
14885;BME280;7534;50.762;7.000;2022-11-09T13:56:49;150705.31;;;17.37;52.20
14885;BME280;7534;50.762;7.000;2022-11-09T13:59:32;150694.81;;;17.33;52.30
14885;BME280;7534;50.762;7.000;2022-11-09T14:02:00;150680.31;;;17.27;52.63
14885;BME280;7534;50.762;7.000;2022-11-09T14:04:39;150655.34;;;17.17;51.71
14885;BME280;7534;50.762;7.000;2022-11-09T14:07:28;150729.03;;;17.46;50.95
14885;BME280;7534;50.762;7.000;2022-11-09T14:16:09;150725.06;;;17.44;51.91
14885;BME280;7534;50.762;7.000;2022-11-09T14:18:58;150742.22;;;17.51;51.52
14885;BME280;7534;50.762;7.000;2022-11-09T14:21:47;150742.22;;;17.51;51.68